sensor_id;sensor_type;location;lat;lon;timestamp;temperature;humidity
66708;DHT22;53622;0.000;0.000;2023-04-06T00:01:09;21.50;44.70
66708;DHT22;53622;0.000;0.000;2023-04-06T00:03:39;21.50;44.70
66708;DHT22;53622;0.000;0.000;2023-04-06T00:06:08;21.50;44.70
66708;DHT22;53622;0.000;0.000;2023-04-06T00:08:38;21.50;44.60
66708;DHT22;53622;0.000;0.000;2023-04-06T00:11:08;21.50;44.60
66708;DHT22;53622;0.000;0.000;2023-04-06T00:13:38;21.50;44.60
66708;DHT22;53622;0.000;0.000;2023-04-06T00:16:07;21.50;44.50
66708;DHT22;53622;0.000;0.000;2023-04-06T00:18:37;21.50;44.50
66708;DHT22;53622;0.000;0.000;2023-04-06T00:21:06;21.40;44.40
66708;DHT22;53622;0.000;0.000;2023-04-06T00:23:35;21.40;44.40
66708;DHT22;53622;0.000;0.000;2023-04-06T00:26:05;21.40;44.40
66708;DHT22;53622;0.000;0.000;2023-04-06T00:28:36;21.40;44.30
66708;DHT22;53622;0.000;0.000;2023-04-06T00:31:05;21.40;44.20
66708;DHT22;53622;0.000;0.000;2023-04-06T00:33:34;21.40;44.30
66708;DHT22;53622;0.000;0.000;2023-04-06T00:36:04;21.40;44.20
66708;DHT22;53622;0.000;0.000;2023-04-06T00:38:33;21.40;44.20
66708;DHT22;53622;0.000;0.000;2023-04-06T00:41:03;21.40;44.10
66708;DHT22;53622;0.000;0.000;2023-04-06T00:43:34;21.40;44.00
66708;DHT22;53622;0.000;0.000;2023-04-06T00:46:04;21.40;44.00
66708;DHT22;53622;0.000;0.000;2023-04-06T00:48:33;21.40;44.00
66708;DHT22;53622;0.000;0.000;2023-04-06T00:51:03;21.40;44.00
66708;DHT22;53622;0.000;0.000;2023-04-06T00:53:33;21.30;44.00
66708;DHT22;53622;0.000;0.000;2023-04-06T00:56:03;21.30;43.90
66708;DHT22;53622;0.000;0.000;2023-04-06T00:58:45;21.30;43.80
66708;DHT22;53622;0.000;0.000;2023-04-06T01:01:15;21.30;43.90
66708;DHT22;53622;0.000;0.000;2023-04-06T01:03:45;21.30;43.80
66708;DHT22;53622;0.000;0.000;2023-04-06T01:06:19;21.30;43.80
66708;DHT22;53622;0.000;0.000;2023-04-06T01:08:57;21.30;43.70
66708;DHT22;53622;0.000;0.000;2023-04-06T01:11:27;21.30;43.70
66708;DHT22;53622;0.000;0.000;2023-04-06T01:13:58;21.30;43.70
66708;DHT22;53622;0.000;0.000;2023-04-06T01:16:50;21.30;43.70
66708;DHT22;53622;0.000;0.000;2023-04-06T01:19:24;21.20;43.60
66708;DHT22;53622;0.000;0.000;2023-04-06T01:21:54;21.20;43.60
66708;DHT22;53622;0.000;0.000;2023-04-06T01:24:31;21.20;43.60
66708;DHT22;53622;0.000;0.000;2023-04-06T01:27:01;21.20;43.50
66708;DHT22;53622;0.000;0.000;2023-04-06T01:29:54;21.20;43.50
66708;DHT22;53622;0.000;0.000;2023-04-06T01:32:44;21.20;43.60
66708;DHT22;53622;0.000;0.000;2023-04-06T01:35:18;21.20;43.50
66708;DHT22;53622;0.000;0.000;2023-04-06T01:37:58;21.20;43.50
66708;DHT22;53622;0.000;0.000;2023-04-06T01:40:35;21.20;43.50
66708;DHT22;53622;0.000;0.000;2023-04-06T01:43:04;21.20;43.50
66708;DHT22;53622;0.000;0.000;2023-04-06T01:45:43;21.20;43.40
66708;DHT22;53622;0.000;0.000;2023-04-06T01:48:18;21.20;43.40
66708;DHT22;53622;0.000;0.000;2023-04-06T01:50:47;21.10;43.30
66708;DHT22;53622;0.000;0.000;2023-04-06T01:53:23;21.20;43.30
66708;DHT22;53622;0.000;0.000;2023-04-06T01:56:00;21.10;43.20
66708;DHT22;53622;0.000;0.000;2023-04-06T01:58:36;21.20;43.30
66708;DHT22;53622;0.000;0.000;2023-04-06T02:01:06;21.10;43.20
66708;DHT22;53622;0.000;0.000;2023-04-06T02:03:50;21.10;43.20
66708;DHT22;53622;0.000;0.000;2023-04-06T02:06:19;21.10;43.20
66708;DHT22;53622;0.000;0.000;2023-04-06T02:08:49;21.10;43.20
66708;DHT22;53622;0.000;0.000;2023-04-06T02:11:21;21.10;43.20
66708;DHT22;53622;0.000;0.000;2023-04-06T02:13:55;21.10;43.10
66708;DHT22;53622;0.000;0.000;2023-04-06T02:16:29;21.10;43.10
66708;DHT22;53622;0.000;0.000;2023-04-06T02:18:58;21.10;43.00
66708;DHT22;53622;0.000;0.000;2023-04-06T02:21:28;21.10;43.10
66708;DHT22;53622;0.000;0.000;2023-04-06T02:23:57;21.10;43.00
66708;DHT22;53622;0.000;0.000;2023-04-06T02:26:28;21.10;43.00
66708;DHT22;53622;0.000;0.000;2023-04-06T02:28:57;21.00;42.90
66708;DHT22;53622;0.000;0.000;2023-04-06T02:31:26;21.00;42.90
66708;DHT22;53622;0.000;0.000;2023-04-06T02:33:56;21.00;42.90
66708;DHT22;53622;0.000;0.000;2023-04-06T02:36:26;21.00;42.90
66708;DHT22;53622;0.000;0.000;2023-04-06T02:38:56;21.00;42.90
66708;DHT22;53622;0.000;0.000;2023-04-06T02:41:25;21.00;42.80
66708;DHT22;53622;0.000;0.000;2023-04-06T02:43:57;21.00;42.80
66708;DHT22;53622;0.000;0.000;2023-04-06T02:46:38;21.00;42.80
66708;DHT22;53622;0.000;0.000;2023-04-06T02:49:08;21.00;42.90
66708;DHT22;53622;0.000;0.000;2023-04-06T02:51:37;21.00;42.80
66708;DHT22;53622;0.000;0.000;2023-04-06T02:54:18;21.00;42.90
66708;DHT22;53622;0.000;0.000;2023-04-06T02:56:48;20.90;42.80
66708;DHT22;53622;0.000;0.000;2023-04-06T02:59:19;20.90;42.80
66708;DHT22;53622;0.000;0.000;2023-04-06T03:02:00;20.90;42.80
66708;DHT22;53622;0.000;0.000;2023-04-06T03:04:30;20.90;42.80
66708;DHT22;53622;0.000;0.000;2023-04-06T03:07:01;20.90;42.70
66708;DHT22;53622;0.000;0.000;2023-04-06T03:09:37;20.90;42.70
66708;DHT22;53622;0.000;0.000;2023-04-06T03:12:07;20.90;42.70
66708;DHT22;53622;0.000;0.000;2023-04-06T03:15:01;20.90;42.70
66708;DHT22;53622;0.000;0.000;2023-04-06T03:17:30;20.90;42.70
66708;DHT22;53622;0.000;0.000;2023-04-06T03:20:04;20.90;42.70
66708;DHT22;53622;0.000;0.000;2023-04-06T03:22:34;20.90;42.70
66708;DHT22;53622;0.000;0.000;2023-04-06T03:25:06;20.90;42.70
66708;DHT22;53622;0.000;0.000;2023-04-06T03:27:35;20.90;42.70
66708;DHT22;53622;0.000;0.000;2023-04-06T03:30:09;20.90;42.60
66708;DHT22;53622;0.000;0.000;2023-04-06T03:32:38;20.90;42.70
66708;DHT22;53622;0.000;0.000;2023-04-06T03:35:08;20.80;42.60
66708;DHT22;53622;0.000;0.000;2023-04-06T03:37:38;20.90;42.60
66708;DHT22;53622;0.000;0.000;2023-04-06T03:40:08;20.80;42.60
66708;DHT22;53622;0.000;0.000;2023-04-06T03:42:37;20.80;42.50
66708;DHT22;53622;0.000;0.000;2023-04-06T03:45:13;20.80;42.60
66708;DHT22;53622;0.000;0.000;2023-04-06T03:47:49;20.80;42.60
66708;DHT22;53622;0.000;0.000;2023-04-06T03:50:19;20.80;42.60
66708;DHT22;53622;0.000;0.000;2023-04-06T03:52:49;20.80;42.50
66708;DHT22;53622;0.000;0.000;2023-04-06T03:55:19;20.80;42.60
66708;DHT22;53622;0.000;0.000;2023-04-06T03:57:50;20.80;42.70
66708;DHT22;53622;0.000;0.000;2023-04-06T04:00:21;20.80;42.90
66708;DHT22;53622;0.000;0.000;2023-04-06T04:02:51;20.80;42.80
66708;DHT22;53622;0.000;0.000;2023-04-06T04:05:21;20.80;42.80
66708;DHT22;53622;0.000;0.000;2023-04-06T04:07:53;20.80;42.70
66708;DHT22;53622;0.000;0.000;2023-04-06T04:10:26;20.80;42.70
66708;DHT22;53622;0.000;0.000;2023-04-06T04:12:55;20.80;42.80
66708;DHT22;53622;0.000;0.000;2023-04-06T04:15:26;20.80;42.80
66708;DHT22;53622;0.000;0.000;2023-04-06T04:17:56;20.70;42.60
66708;DHT22;53622;0.000;0.000;2023-04-06T04:20:25;20.70;41.90
66708;DHT22;53622;0.000;0.000;2023-04-06T04:22:56;20.70;41.60
66708;DHT22;53622;0.000;0.000;2023-04-06T04:25:25;20.70;41.60
66708;DHT22;53622;0.000;0.000;2023-04-06T04:27:54;20.70;41.90
66708;DHT22;53622;0.000;0.000;2023-04-06T04:30:25;20.70;42.10
66708;DHT22;53622;0.000;0.000;2023-04-06T04:32:55;20.70;42.20
66708;DHT22;53622;0.000;0.000;2023-04-06T04:35:24;20.70;42.10
66708;DHT22;53622;0.000;0.000;2023-04-06T04:37:54;20.70;41.90
66708;DHT22;53622;0.000;0.000;2023-04-06T04:40:23;20.70;42.00
66708;DHT22;53622;0.000;0.000;2023-04-06T04:43:00;20.70;42.10
66708;DHT22;53622;0.000;0.000;2023-04-06T04:45:34;20.70;42.10
66708;DHT22;53622;0.000;0.000;2023-04-06T04:48:16;20.60;42.10
66708;DHT22;53622;0.000;0.000;2023-04-06T04:50:53;20.60;42.10
66708;DHT22;53622;0.000;0.000;2023-04-06T04:53:27;20.60;42.70
66708;DHT22;53622;0.000;0.000;2023-04-06T04:56:02;20.60;42.10
66708;DHT22;53622;0.000;0.000;2023-04-06T04:58:32;20.60;42.10
66708;DHT22;53622;0.000;0.000;2023-04-06T05:01:04;20.60;42.10
66708;DHT22;53622;0.000;0.000;2023-04-06T05:03:33;20.60;42.10
66708;DHT22;53622;0.000;0.000;2023-04-06T05:06:06;20.60;42.10
66708;DHT22;53622;0.000;0.000;2023-04-06T05:08:41;20.60;42.10
66708;DHT22;53622;0.000;0.000;2023-04-06T05:11:10;20.60;42.00
66708;DHT22;53622;0.000;0.000;2023-04-06T05:13:45;20.60;42.10
66708;DHT22;53622;0.000;0.000;2023-04-06T05:16:20;20.60;42.10
66708;DHT22;53622;0.000;0.000;2023-04-06T05:18:51;20.60;42.10
66708;DHT22;53622;0.000;0.000;2023-04-06T05:21:21;20.60;42.10
66708;DHT22;53622;0.000;0.000;2023-04-06T05:24:00;20.50;42.10
66708;DHT22;53622;0.000;0.000;2023-04-06T05:26:32;20.50;41.30
66708;DHT22;53622;0.000;0.000;2023-04-06T05:29:07;20.50;41.80
66708;DHT22;53622;0.000;0.000;2023-04-06T05:31:39;20.50;42.10
66708;DHT22;53622;0.000;0.000;2023-04-06T05:34:09;20.50;42.20
66708;DHT22;53622;0.000;0.000;2023-04-06T05:36:40;20.60;42.40
66708;DHT22;53622;0.000;0.000;2023-04-06T05:39:17;20.50;42.50
66708;DHT22;53622;0.000;0.000;2023-04-06T05:41:52;20.60;42.80
66708;DHT22;53622;0.000;0.000;2023-04-06T05:44:31;20.50;42.90
66708;DHT22;53622;0.000;0.000;2023-04-06T05:47:15;20.60;43.20
66708;DHT22;53622;0.000;0.000;2023-04-06T05:49:49;20.60;43.20
66708;DHT22;53622;0.000;0.000;2023-04-06T05:52:26;20.60;43.10
66708;DHT22;53622;0.000;0.000;2023-04-06T05:54:56;20.60;43.00
66708;DHT22;53622;0.000;0.000;2023-04-06T05:57:26;20.50;43.00
66708;DHT22;53622;0.000;0.000;2023-04-06T05:59:55;20.50;42.90
66708;DHT22;53622;0.000;0.000;2023-04-06T06:02:40;20.50;43.00
66708;DHT22;53622;0.000;0.000;2023-04-06T06:05:16;20.50;43.30
66708;DHT22;53622;0.000;0.000;2023-04-06T06:07:47;20.50;44.20
66708;DHT22;53622;0.000;0.000;2023-04-06T06:10:17;20.50;44.50
66708;DHT22;53622;0.000;0.000;2023-04-06T06:12:46;20.50;46.00
66708;DHT22;53622;0.000;0.000;2023-04-06T06:15:17;20.50;45.80
66708;DHT22;53622;0.000;0.000;2023-04-06T06:17:49;20.50;46.90
66708;DHT22;53622;0.000;0.000;2023-04-06T06:20:18;20.50;47.40
66708;DHT22;53622;0.000;0.000;2023-04-06T06:22:48;20.50;47.60
66708;DHT22;53622;0.000;0.000;2023-04-06T06:25:21;20.50;47.80
66708;DHT22;53622;0.000;0.000;2023-04-06T06:27:52;20.50;47.60
66708;DHT22;53622;0.000;0.000;2023-04-06T06:30:22;20.50;47.60
66708;DHT22;53622;0.000;0.000;2023-04-06T06:32:53;20.50;48.10
66708;DHT22;53622;0.000;0.000;2023-04-06T06:35:22;20.50;47.70
66708;DHT22;53622;0.000;0.000;2023-04-06T06:37:52;20.50;47.00
66708;DHT22;53622;0.000;0.000;2023-04-06T06:40:25;20.50;47.10
66708;DHT22;53622;0.000;0.000;2023-04-06T06:42:55;20.50;47.90
66708;DHT22;53622;0.000;0.000;2023-04-06T06:45:44;20.50;48.00
66708;DHT22;53622;0.000;0.000;2023-04-06T06:48:15;20.50;48.30
66708;DHT22;53622;0.000;0.000;2023-04-06T06:50:47;20.50;48.50
66708;DHT22;53622;0.000;0.000;2023-04-06T06:53:17;20.40;48.20
66708;DHT22;53622;0.000;0.000;2023-04-06T06:55:46;20.40;48.30
66708;DHT22;53622;0.000;0.000;2023-04-06T06:58:18;20.40;48.30
66708;DHT22;53622;0.000;0.000;2023-04-06T07:00:48;20.40;48.50
66708;DHT22;53622;0.000;0.000;2023-04-06T07:03:19;20.50;48.80
66708;DHT22;53622;0.000;0.000;2023-04-06T07:05:49;20.40;48.50
66708;DHT22;53622;0.000;0.000;2023-04-06T07:08:23;20.40;48.40
66708;DHT22;53622;0.000;0.000;2023-04-06T07:10:53;20.40;48.40
66708;DHT22;53622;0.000;0.000;2023-04-06T07:13:24;20.40;48.40
66708;DHT22;53622;0.000;0.000;2023-04-06T07:15:57;20.40;48.90
66708;DHT22;53622;0.000;0.000;2023-04-06T07:18:30;20.40;48.10
66708;DHT22;53622;0.000;0.000;2023-04-06T07:21:03;20.40;47.90
66708;DHT22;53622;0.000;0.000;2023-04-06T07:23:33;20.50;47.90
66708;DHT22;53622;0.000;0.000;2023-04-06T07:26:02;20.50;47.80
66708;DHT22;53622;0.000;0.000;2023-04-06T07:28:32;20.50;47.90
66708;DHT22;53622;0.000;0.000;2023-04-06T07:31:02;20.50;47.90
66708;DHT22;53622;0.000;0.000;2023-04-06T07:33:33;20.50;48.00
66708;DHT22;53622;0.000;0.000;2023-04-06T07:36:03;20.50;47.40
66708;DHT22;53622;0.000;0.000;2023-04-06T07:38:32;20.40;47.60
66708;DHT22;53622;0.000;0.000;2023-04-06T07:41:02;20.50;47.40
66708;DHT22;53622;0.000;0.000;2023-04-06T07:43:32;20.50;47.30
66708;DHT22;53622;0.000;0.000;2023-04-06T07:46:02;20.50;47.40
66708;DHT22;53622;0.000;0.000;2023-04-06T07:48:32;20.50;47.60
66708;DHT22;53622;0.000;0.000;2023-04-06T07:51:02;20.50;47.30
66708;DHT22;53622;0.000;0.000;2023-04-06T07:53:35;20.50;47.30
66708;DHT22;53622;0.000;0.000;2023-04-06T07:56:05;20.50;47.40
66708;DHT22;53622;0.000;0.000;2023-04-06T07:58:34;20.50;47.30
66708;DHT22;53622;0.000;0.000;2023-04-06T08:01:04;20.50;47.10
66708;DHT22;53622;0.000;0.000;2023-04-06T08:03:35;20.60;47.00
66708;DHT22;53622;0.000;0.000;2023-04-06T08:06:05;20.60;47.10
66708;DHT22;53622;0.000;0.000;2023-04-06T08:08:34;20.60;47.10
66708;DHT22;53622;0.000;0.000;2023-04-06T08:11:04;20.60;47.10
66708;DHT22;53622;0.000;0.000;2023-04-06T08:13:33;20.60;47.10
66708;DHT22;53622;0.000;0.000;2023-04-06T08:16:03;20.60;47.00
66708;DHT22;53622;0.000;0.000;2023-04-06T08:18:34;20.60;47.30
66708;DHT22;53622;0.000;0.000;2023-04-06T08:21:04;20.60;47.40
66708;DHT22;53622;0.000;0.000;2023-04-06T08:23:33;20.60;47.30
66708;DHT22;53622;0.000;0.000;2023-04-06T08:26:02;20.60;47.30
66708;DHT22;53622;0.000;0.000;2023-04-06T08:28:32;20.60;47.20
66708;DHT22;53622;0.000;0.000;2023-04-06T08:31:04;20.60;47.20
66708;DHT22;53622;0.000;0.000;2023-04-06T08:33:35;20.70;47.30
66708;DHT22;53622;0.000;0.000;2023-04-06T08:36:08;20.70;47.20
66708;DHT22;53622;0.000;0.000;2023-04-06T08:38:38;20.70;47.20
66708;DHT22;53622;0.000;0.000;2023-04-06T08:41:08;20.70;47.30
66708;DHT22;53622;0.000;0.000;2023-04-06T08:43:43;20.70;47.80
66708;DHT22;53622;0.000;0.000;2023-04-06T08:46:12;20.70;47.60
66708;DHT22;53622;0.000;0.000;2023-04-06T08:48:44;20.70;47.40
66708;DHT22;53622;0.000;0.000;2023-04-06T08:51:16;20.70;47.10
66708;DHT22;53622;0.000;0.000;2023-04-06T08:53:46;20.70;47.30
66708;DHT22;53622;0.000;0.000;2023-04-06T08:56:16;20.70;47.20
66708;DHT22;53622;0.000;0.000;2023-04-06T08:58:46;20.70;47.30
66708;DHT22;53622;0.000;0.000;2023-04-06T09:01:17;20.70;47.40
66708;DHT22;53622;0.000;0.000;2023-04-06T09:03:49;20.70;47.60
66708;DHT22;53622;0.000;0.000;2023-04-06T09:06:19;20.70;48.20
66708;DHT22;53622;0.000;0.000;2023-04-06T09:08:49;20.70;48.40
66708;DHT22;53622;0.000;0.000;2023-04-06T09:11:18;20.70;48.20
66708;DHT22;53622;0.000;0.000;2023-04-06T09:13:48;20.70;48.50
66708;DHT22;53622;0.000;0.000;2023-04-06T09:16:18;20.70;47.40
66708;DHT22;53622;0.000;0.000;2023-04-06T09:18:50;20.70;47.40
66708;DHT22;53622;0.000;0.000;2023-04-06T09:21:19;20.70;47.80
66708;DHT22;53622;0.000;0.000;2023-04-06T09:23:59;20.70;47.60
66708;DHT22;53622;0.000;0.000;2023-04-06T09:26:29;20.70;48.00
66708;DHT22;53622;0.000;0.000;2023-04-06T09:29:01;20.90;71.10
66708;DHT22;53622;0.000;0.000;2023-04-06T09:31:31;20.80;48.10
66708;DHT22;53622;0.000;0.000;2023-04-06T09:34:02;20.60;63.40
66708;DHT22;53622;0.000;0.000;2023-04-06T09:36:32;20.90;62.30
66708;DHT22;53622;0.000;0.000;2023-04-06T09:39:03;20.80;64.90
66708;DHT22;53622;0.000;0.000;2023-04-06T09:41:34;20.70;74.40
66708;DHT22;53622;0.000;0.000;2023-04-06T09:44:05;20.40;80.20
66708;DHT22;53622;0.000;0.000;2023-04-06T09:46:37;20.60;72.20
66708;DHT22;53622;0.000;0.000;2023-04-06T09:49:27;20.70;89.10
66708;DHT22;53622;0.000;0.000;2023-04-06T09:51:59;20.20;91.30
66708;DHT22;53622;0.000;0.000;2023-04-06T09:54:29;20.50;46.80
66708;DHT22;53622;0.000;0.000;2023-04-06T09:57:07;20.40;60.40
66708;DHT22;53622;0.000;0.000;2023-04-06T09:59:44;20.60;81.10
66708;DHT22;53622;0.000;0.000;2023-04-06T10:02:28;20.50;59.80
66708;DHT22;53622;0.000;0.000;2023-04-06T10:05:07;20.50;62.10
66708;DHT22;53622;0.000;0.000;2023-04-06T10:07:40;20.50;64.10
66708;DHT22;53622;0.000;0.000;2023-04-06T10:10:27;20.60;62.70
66708;DHT22;53622;0.000;0.000;2023-04-06T10:12:57;20.50;58.40
66708;DHT22;53622;0.000;0.000;2023-04-06T10:15:28;20.50;59.00
66708;DHT22;53622;0.000;0.000;2023-04-06T10:17:59;20.50;64.50
66708;DHT22;53622;0.000;0.000;2023-04-06T10:20:36;20.40;82.90
66708;DHT22;53622;0.000;0.000;2023-04-06T10:23:11;20.50;48.20
66708;DHT22;53622;0.000;0.000;2023-04-06T10:25:53;20.50;48.40
66708;DHT22;53622;0.000;0.000;2023-04-06T10:28:23;20.50;47.80
66708;DHT22;53622;0.000;0.000;2023-04-06T10:30:57;20.50;47.20
66708;DHT22;53622;0.000;0.000;2023-04-06T10:33:28;20.50;47.00
66708;DHT22;53622;0.000;0.000;2023-04-06T10:36:09;20.50;46.60
66708;DHT22;53622;0.000;0.000;2023-04-06T10:38:39;20.60;45.70
66708;DHT22;53622;0.000;0.000;2023-04-06T10:41:10;20.60;45.30
66708;DHT22;53622;0.000;0.000;2023-04-06T10:43:40;20.60;45.90
66708;DHT22;53622;0.000;0.000;2023-04-06T10:46:10;20.60;46.40
66708;DHT22;53622;0.000;0.000;2023-04-06T10:48:41;20.60;46.60
66708;DHT22;53622;0.000;0.000;2023-04-06T10:51:13;20.60;46.60
66708;DHT22;53622;0.000;0.000;2023-04-06T10:53:44;20.60;46.50
66708;DHT22;53622;0.000;0.000;2023-04-06T10:56:16;20.70;46.50
66708;DHT22;53622;0.000;0.000;2023-04-06T10:58:47;20.60;46.30
66708;DHT22;53622;0.000;0.000;2023-04-06T11:01:18;20.70;46.30
66708;DHT22;53622;0.000;0.000;2023-04-06T11:03:49;20.60;46.30
66708;DHT22;53622;0.000;0.000;2023-04-06T11:06:21;20.70;46.50
66708;DHT22;53622;0.000;0.000;2023-04-06T11:08:52;20.70;46.50
66708;DHT22;53622;0.000;0.000;2023-04-06T11:11:23;20.70;46.60
66708;DHT22;53622;0.000;0.000;2023-04-06T11:13:56;20.70;46.60
66708;DHT22;53622;0.000;0.000;2023-04-06T11:16:27;20.70;46.60
66708;DHT22;53622;0.000;0.000;2023-04-06T11:18:58;20.70;46.70
66708;DHT22;53622;0.000;0.000;2023-04-06T11:21:34;20.70;46.80
66708;DHT22;53622;0.000;0.000;2023-04-06T11:24:08;20.70;46.40
66708;DHT22;53622;0.000;0.000;2023-04-06T11:26:39;20.70;46.80
66708;DHT22;53622;0.000;0.000;2023-04-06T11:29:10;20.80;46.90
66708;DHT22;53622;0.000;0.000;2023-04-06T11:31:47;20.70;46.90
66708;DHT22;53622;0.000;0.000;2023-04-06T11:34:35;20.80;47.10
66708;DHT22;53622;0.000;0.000;2023-04-06T11:43:25;20.70;47.00
66708;DHT22;53622;0.000;0.000;2023-04-06T12:00:07;20.70;47.20
66708;DHT22;53622;0.000;0.000;2023-04-06T12:02:37;20.70;47.10
66708;DHT22;53622;0.000;0.000;2023-04-06T12:05:08;20.80;47.00
66708;DHT22;53622;0.000;0.000;2023-04-06T12:07:37;20.90;47.10
66708;DHT22;53622;0.000;0.000;2023-04-06T12:10:12;20.90;47.20
66708;DHT22;53622;0.000;0.000;2023-04-06T12:12:41;21.00;47.30
66708;DHT22;53622;0.000;0.000;2023-04-06T12:15:12;21.00;47.30
66708;DHT22;53622;0.000;0.000;2023-04-06T12:17:42;21.00;47.30
66708;DHT22;53622;0.000;0.000;2023-04-06T12:20:12;21.00;47.30
66708;DHT22;53622;0.000;0.000;2023-04-06T12:22:53;21.10;47.40
66708;DHT22;53622;0.000;0.000;2023-04-06T12:25:22;21.10;47.40
66708;DHT22;53622;0.000;0.000;2023-04-06T12:27:52;21.10;47.30
66708;DHT22;53622;0.000;0.000;2023-04-06T12:30:23;21.10;47.30
66708;DHT22;53622;0.000;0.000;2023-04-06T12:32:52;21.10;47.30
66708;DHT22;53622;0.000;0.000;2023-04-06T12:40:20;21.20;91.50
66708;DHT22;53622;0.000;0.000;2023-04-06T12:42:50;21.30;51.20
66708;DHT22;53622;0.000;0.000;2023-04-06T12:47:50;21.10;57.50
66708;DHT22;53622;0.000;0.000;2023-04-06T12:50:20;21.20;47.40
66708;DHT22;53622;0.000;0.000;2023-04-06T12:52:49;21.20;47.40
66708;DHT22;53622;0.000;0.000;2023-04-06T12:55:18;21.20;47.30
66708;DHT22;53622;0.000;0.000;2023-04-06T12:57:48;21.20;47.30
66708;DHT22;53622;0.000;0.000;2023-04-06T13:00:18;21.20;47.30
66708;DHT22;53622;0.000;0.000;2023-04-06T13:02:50;21.20;47.30
66708;DHT22;53622;0.000;0.000;2023-04-06T13:05:20;21.20;47.80
66708;DHT22;53622;0.000;0.000;2023-04-06T13:07:49;21.20;47.10
66708;DHT22;53622;0.000;0.000;2023-04-06T13:10:18;21.30;63.30
66708;DHT22;53622;0.000;0.000;2023-04-06T13:17:46;21.30;61.60
66708;DHT22;53622;0.000;0.000;2023-04-06T13:20:18;21.20;47.00
66708;DHT22;53622;0.000;0.000;2023-04-06T13:22:47;21.20;46.90
66708;DHT22;53622;0.000;0.000;2023-04-06T13:25:17;21.20;46.90
66708;DHT22;53622;0.000;0.000;2023-04-06T13:27:46;21.20;47.00
66708;DHT22;53622;0.000;0.000;2023-04-06T13:30:16;21.20;46.90
66708;DHT22;53622;0.000;0.000;2023-04-06T13:32:46;21.20;46.30
66708;DHT22;53622;0.000;0.000;2023-04-06T13:35:18;21.20;46.90
66708;DHT22;53622;0.000;0.000;2023-04-06T13:37:48;21.30;46.90
66708;DHT22;53622;0.000;0.000;2023-04-06T13:40:19;21.30;46.80
66708;DHT22;53622;0.000;0.000;2023-04-06T13:42:48;21.30;46.90
66708;DHT22;53622;0.000;0.000;2023-04-06T13:45:18;21.30;46.80
66708;DHT22;53622;0.000;0.000;2023-04-06T13:47:47;21.30;46.80
66708;DHT22;53622;0.000;0.000;2023-04-06T13:50:18;21.30;46.70
66708;DHT22;53622;0.000;0.000;2023-04-06T13:52:48;21.30;46.60
66708;DHT22;53622;0.000;0.000;2023-04-06T13:55:17;21.40;46.60
66708;DHT22;53622;0.000;0.000;2023-04-06T13:57:46;21.40;46.60
66708;DHT22;53622;0.000;0.000;2023-04-06T14:00:16;21.40;46.60
66708;DHT22;53622;0.000;0.000;2023-04-06T14:02:47;21.40;46.40
66708;DHT22;53622;0.000;0.000;2023-04-06T14:05:17;21.40;46.40
66708;DHT22;53622;0.000;0.000;2023-04-06T14:07:47;21.40;46.00
66708;DHT22;53622;0.000;0.000;2023-04-06T14:10:17;21.40;46.00
66708;DHT22;53622;0.000;0.000;2023-04-06T14:12:48;21.40;46.20
66708;DHT22;53622;0.000;0.000;2023-04-06T14:15:18;21.40;46.20
66708;DHT22;53622;0.000;0.000;2023-04-06T14:17:49;21.40;46.20
66708;DHT22;53622;0.000;0.000;2023-04-06T14:20:21;21.40;46.30
66708;DHT22;53622;0.000;0.000;2023-04-06T14:22:50;21.40;46.20
66708;DHT22;53622;0.000;0.000;2023-04-06T14:25:20;21.30;46.30
66708;DHT22;53622;0.000;0.000;2023-04-06T14:27:49;21.30;46.30
66708;DHT22;53622;0.000;0.000;2023-04-06T14:30:19;21.30;46.20
66708;DHT22;53622;0.000;0.000;2023-04-06T14:32:48;21.30;46.20
66708;DHT22;53622;0.000;0.000;2023-04-06T14:35:17;21.30;46.30
66708;DHT22;53622;0.000;0.000;2023-04-06T14:37:48;21.30;46.20
66708;DHT22;53622;0.000;0.000;2023-04-06T14:40:18;21.30;46.00
66708;DHT22;53622;0.000;0.000;2023-04-06T14:42:47;21.30;46.00
66708;DHT22;53622;0.000;0.000;2023-04-06T14:45:18;21.30;46.10
66708;DHT22;53622;0.000;0.000;2023-04-06T14:47:49;21.30;46.10
66708;DHT22;53622;0.000;0.000;2023-04-06T14:50:19;21.30;46.10
66708;DHT22;53622;0.000;0.000;2023-04-06T14:52:50;21.30;45.90
66708;DHT22;53622;0.000;0.000;2023-04-06T14:55:19;21.30;45.90
66708;DHT22;53622;0.000;0.000;2023-04-06T14:57:48;21.30;45.90
66708;DHT22;53622;0.000;0.000;2023-04-06T15:00:19;21.30;45.80
66708;DHT22;53622;0.000;0.000;2023-04-06T15:02:48;21.30;45.90
66708;DHT22;53622;0.000;0.000;2023-04-06T15:05:17;21.30;45.90
66708;DHT22;53622;0.000;0.000;2023-04-06T15:07:47;21.30;45.80
66708;DHT22;53622;0.000;0.000;2023-04-06T15:10:18;21.30;45.80
66708;DHT22;53622;0.000;0.000;2023-04-06T15:12:47;21.30;45.80
66708;DHT22;53622;0.000;0.000;2023-04-06T15:15:17;21.30;45.80
66708;DHT22;53622;0.000;0.000;2023-04-06T15:17:46;21.20;45.70
66708;DHT22;53622;0.000;0.000;2023-04-06T15:20:15;21.20;45.70
66708;DHT22;53622;0.000;0.000;2023-04-06T15:22:45;21.30;45.70
66708;DHT22;53622;0.000;0.000;2023-04-06T15:25:14;21.30;45.70
66708;DHT22;53622;0.000;0.000;2023-04-06T15:27:45;21.20;45.70
66708;DHT22;53622;0.000;0.000;2023-04-06T15:30:14;21.20;45.70
66708;DHT22;53622;0.000;0.000;2023-04-06T15:32:52;21.20;45.70
66708;DHT22;53622;0.000;0.000;2023-04-06T15:35:22;21.30;45.80
66708;DHT22;53622;0.000;0.000;2023-04-06T15:37:53;21.20;45.60
66708;DHT22;53622;0.000;0.000;2023-04-06T15:40:22;21.20;45.60
66708;DHT22;53622;0.000;0.000;2023-04-06T15:42:53;21.30;45.60
66708;DHT22;53622;0.000;0.000;2023-04-06T15:45:22;21.40;45.70
66708;DHT22;53622;0.000;0.000;2023-04-06T15:47:52;21.50;45.50
66708;DHT22;53622;0.000;0.000;2023-04-06T15:50:21;21.60;45.40
66708;DHT22;53622;0.000;0.000;2023-04-06T15:52:51;21.60;45.20
66708;DHT22;53622;0.000;0.000;2023-04-06T15:55:20;21.70;45.10
66708;DHT22;53622;0.000;0.000;2023-04-06T15:57:49;21.80;45.00
66708;DHT22;53622;0.000;0.000;2023-04-06T16:00:21;21.80;45.00
66708;DHT22;53622;0.000;0.000;2023-04-06T16:02:50;21.80;44.90
66708;DHT22;53622;0.000;0.000;2023-04-06T16:05:20;21.90;44.90
66708;DHT22;53622;0.000;0.000;2023-04-06T16:07:49;22.00;44.80
66708;DHT22;53622;0.000;0.000;2023-04-06T16:10:18;22.00;44.50
66708;DHT22;53622;0.000;0.000;2023-04-06T16:12:48;22.00;44.50
66708;DHT22;53622;0.000;0.000;2023-04-06T16:15:17;22.00;44.60
66708;DHT22;53622;0.000;0.000;2023-04-06T16:17:48;22.10;44.50
66708;DHT22;53622;0.000;0.000;2023-04-06T16:20:18;22.10;44.50
66708;DHT22;53622;0.000;0.000;2023-04-06T16:22:47;22.10;44.90
66708;DHT22;53622;0.000;0.000;2023-04-06T16:25:17;22.10;44.50
66708;DHT22;53622;0.000;0.000;2023-04-06T16:27:46;22.10;44.50
66708;DHT22;53622;0.000;0.000;2023-04-06T16:30:16;22.10;44.50
66708;DHT22;53622;0.000;0.000;2023-04-06T16:32:45;22.10;44.60
66708;DHT22;53622;0.000;0.000;2023-04-06T16:35:20;22.00;44.50
66708;DHT22;53622;0.000;0.000;2023-04-06T16:37:49;22.00;44.70
66708;DHT22;53622;0.000;0.000;2023-04-06T16:40:19;22.00;44.60
66708;DHT22;53622;0.000;0.000;2023-04-06T16:42:48;22.00;44.70
66708;DHT22;53622;0.000;0.000;2023-04-06T16:45:17;22.00;44.70